Time;durP1;ratioP1;P1;durP2;ratioP2;P2;SDS_P1;SDS_P2;PMS_P1;PMS_P2;Temp;Humidity;BMP_temperature;BMP_pressure;BME280_temperature;BME280_humidity;BME280_pressure;Samples;Min_cycle;Max_cycle;Signal;HPM_P1;HPM_P2
2024/01/13 00:01:38;;;;;;;12.82;7.28;;;2.60;99.90;;;;;;4868130;29;20052;-46
2024/01/13 00:04:04;;;;;;;12.07;7.32;;;2.70;99.90;;;;;;4872867;29;20049;-46
2024/01/13 00:06:29;;;;;;;11.68;6.82;;;2.80;99.90;;;;;;4872793;29;20049;-46
2024/01/13 00:08:55;;;;;;;13.55;6.97;;;2.80;99.90;;;;;;4868698;29;20480;-47
2024/01/13 00:11:21;;;;;;;11.85;7.03;;;2.70;99.90;;;;;;4872491;29;20044;-47
2024/01/13 00:13:46;;;;;;;11.45;7.25;;;2.70;99.90;;;;;;4875327;29;20056;-46
2024/01/13 00:16:12;;;;;;;10.73;6.00;;;2.80;99.90;;;;;;4871400;29;20048;-45
2024/01/13 00:18:37;;;;;;;9.38;5.80;;;2.70;99.90;;;;;;4869595;29;20489;-46
2024/01/13 00:21:03;;;;;;;8.05;5.45;;;2.70;99.90;;;;;;4868449;29;20536;-46
2024/01/13 00:23:29;;;;;;;9.73;5.60;;;2.80;99.90;;;;;;4867962;29;20038;-47
2024/01/13 00:25:54;;;;;;;7.07;5.18;;;2.70;99.90;;;;;;4867477;29;20108;-48
2024/01/13 00:28:20;;;;;;;7.85;5.50;;;2.50;99.90;;;;;;4868224;29;20069;-48
2024/01/13 00:30:45;;;;;;;8.65;5.53;;;2.70;99.90;;;;;;4870839;29;20068;-46
2024/01/13 00:33:11;;;;;;;8.50;5.82;;;2.70;99.90;;;;;;4870669;29;20085;-47
2024/01/13 00:35:37;;;;;;;8.65;5.68;;;2.60;99.90;;;;;;4875812;29;20075;-46
2024/01/13 00:38:02;;;;;;;10.25;5.30;;;2.60;99.90;;;;;;4874389;29;20076;-47
2024/01/13 00:40:28;;;;;;;8.50;5.60;;;2.70;99.90;;;;;;4874557;29;20041;-46
2024/01/13 00:42:55;;;;;;;7.32;5.10;;;2.70;99.90;;;;;;4875351;29;20102;-46
2024/01/13 00:45:21;;;;;;;9.15;5.20;;;2.60;99.90;;;;;;4879827;29;20049;-46
2024/01/13 00:47:46;;;;;;;9.90;5.75;;;2.50;99.90;;;;;;4868749;29;20462;-47
2024/01/13 00:50:12;;;;;;;14.27;6.40;;;2.50;99.90;;;;;;4876313;29;20065;-46
2024/01/13 00:52:37;;;;;;;8.65;5.80;;;2.50;99.90;;;;;;4872776;29;20049;-47
2024/01/13 00:55:04;;;;;;;13.50;5.80;;;2.50;99.90;;;;;;4873910;29;20041;-46
2024/01/13 00:57:30;;;;;;;7.10;5.40;;;2.50;99.90;;;;;;4872613;29;20049;-48
2024/01/13 00:59:55;;;;;;;10.70;5.55;;;2.60;99.90;;;;;;4871530;29;20041;-47
2024/01/13 01:02:21;;;;;;;9.88;5.78;;;2.60;99.90;;;;;;4872803;29;20049;-48
2024/01/13 01:04:46;;;;;;;12.38;7.03;;;2.60;99.90;;;;;;4873100;29;20048;-48
2024/01/13 01:07:12;;;;;;;14.80;7.80;;;2.70;99.90;;;;;;4875292;29;20124;-47
2024/01/13 01:09:38;;;;;;;16.55;7.70;;;2.50;99.90;;;;;;4869258;29;20109;-46
2024/01/13 01:12:04;;;;;;;13.25;7.43;;;2.50;99.90;;;;;;4872859;29;20068;-46
2024/01/13 01:14:29;;;;;;;11.57;6.47;;;2.60;99.90;;;;;;4872923;29;20041;-45
2024/01/13 01:16:55;;;;;;;8.57;5.47;;;2.50;99.90;;;;;;4870685;29;20504;-47
2024/01/13 01:19:21;;;;;;;9.40;5.10;;;2.60;99.90;;;;;;4870684;29;20120;-47
2024/01/13 01:21:46;;;;;;;9.23;5.20;;;2.70;99.90;;;;;;4879890;29;20045;-47
2024/01/13 01:24:12;;;;;;;8.85;5.97;;;2.70;99.90;;;;;;4875147;29;20231;-46
2024/01/13 01:26:37;;;;;;;12.93;6.20;;;2.60;99.90;;;;;;4871958;29;20033;-46
2024/01/13 01:29:03;;;;;;;10.10;6.13;;;2.60;99.90;;;;;;4872218;29;20049;-46
2024/01/13 01:31:29;;;;;;;12.02;6.25;;;2.70;99.90;;;;;;4875122;29;20105;-45
2024/01/13 01:33:54;;;;;;;11.02;6.72;;;2.60;99.90;;;;;;4855397;29;20106;-46
2024/01/13 01:36:20;;;;;;;10.30;7.32;;;2.70;99.90;;;;;;4871596;29;20055;-47
2024/01/13 01:38:45;;;;;;;11.40;7.20;;;2.80;99.90;;;;;;4873137;29;20404;-45
2024/01/13 01:41:13;;;;;;;12.73;7.45;;;2.80;99.90;;;;;;4872467;29;20037;-47
2024/01/13 01:43:39;;;;;;;;;;;2.60;99.90;;;;;;4872949;29;20041;-47
2024/01/13 01:46:06;;;;;;;10.68;6.85;;;2.60;99.90;;;;;;4873187;29;20025;-47
2024/01/13 01:48:37;;;;;;;9.63;7.20;;;2.80;99.90;;;;;;4872590;29;20141;-47
2024/01/13 01:51:04;;;;;;;11.93;6.82;;;2.80;99.90;;;;;;4838343;29;1065853;-48
2024/01/13 01:53:30;;;;;;;11.18;7.38;;;2.70;99.90;;;;;;4872833;29;20049;-47
2024/01/13 01:55:57;;;;;;;12.32;8.07;;;2.80;99.90;;;;;;4877425;29;20128;-46
2024/01/13 01:58:23;;;;;;;13.88;8.88;;;2.70;99.90;;;;;;4871418;29;20582;-46
2024/01/13 02:00:49;;;;;;;12.95;7.97;;;2.80;99.90;;;;;;4873452;29;20077;-49
2024/01/13 02:03:15;;;;;;;12.48;8.48;;;2.80;99.90;;;;;;4870651;29;20049;-45
2024/01/13 02:05:40;;;;;;;13.15;8.48;;;2.90;99.90;;;;;;4873445;29;20053;-46
2024/01/13 02:08:06;;;;;;;15.02;9.38;;;2.70;99.90;;;;;;4872242;29;20037;-45
2024/01/13 02:10:33;;;;;;;13.90;8.45;;;2.80;99.90;;;;;;4872372;29;20127;-46
2024/01/13 02:12:58;;;;;;;15.13;8.52;;;2.90;99.90;;;;;;4875104;29;20116;-47
2024/01/13 02:15:24;;;;;;;12.65;8.75;;;2.80;99.90;;;;;;4870124;29;20504;-46
2024/01/13 02:17:50;;;;;;;13.25;8.90;;;2.80;99.90;;;;;;4869421;29;20056;-48
2024/01/13 02:20:15;;;;;;;14.15;9.43;;;2.70;99.90;;;;;;4871866;29;20093;-46
2024/01/13 02:22:41;;;;;;;13.02;8.85;;;2.60;99.90;;;;;;4871553;29;20053;-47
2024/01/13 02:25:07;;;;;;;13.13;7.82;;;2.80;99.90;;;;;;4874285;29;20063;-47
2024/01/13 02:27:33;;;;;;;10.32;7.13;;;2.70;99.90;;;;;;4873939;29;20147;-46
2024/01/13 02:29:59;;;;;;;13.93;7.65;;;2.70;99.90;;;;;;4871216;29;20152;-46
2024/01/13 02:32:24;;;;;;;11.57;7.38;;;2.70;99.90;;;;;;4872723;29;20041;-45
2024/01/13 02:34:50;;;;;;;12.65;7.53;;;2.70;99.90;;;;;;4873169;29;20511;-47
2024/01/13 02:37:16;;;;;;;17.73;7.53;;;2.90;99.90;;;;;;4874553;29;20041;-47
2024/01/13 02:39:41;;;;;;;12.63;7.13;;;2.70;99.90;;;;;;4873894;29;20052;-46
2024/01/13 02:42:08;;;;;;;11.55;7.00;;;2.90;99.90;;;;;;4876361;29;20422;-46
2024/01/13 02:44:34;;;;;;;10.52;6.57;;;2.90;99.90;;;;;;4874612;29;20089;-46
2024/01/13 02:46:59;;;;;;;9.32;6.75;;;2.70;99.90;;;;;;4877239;29;20052;-45
2024/01/13 02:49:25;;;;;;;11.90;7.13;;;2.70;99.90;;;;;;4877049;29;20044;-46
2024/01/13 02:51:51;;;;;;;11.85;7.57;;;2.90;99.90;;;;;;4875570;29;20049;-45
2024/01/13 02:54:16;;;;;;;15.60;7.75;;;2.70;99.90;;;;;;4880243;29;20053;-45
2024/01/13 02:56:42;;;;;;;12.88;7.70;;;2.80;99.90;;;;;;4875311;29;20407;-49
2024/01/13 02:59:07;;;;;;;13.38;8.32;;;2.90;99.90;;;;;;4878880;29;20053;-46
2024/01/13 03:01:34;;;;;;;13.35;8.48;;;2.80;99.90;;;;;;4869338;29;20127;-45
2024/01/13 03:03:59;;;;;;;15.68;7.95;;;2.90;99.90;;;;;;4874151;29;20045;-48
2024/01/13 03:06:26;;;;;;;14.00;8.45;;;2.70;99.90;;;;;;4877661;29;20052;-45
2024/01/13 03:08:55;;;;;;;15.25;8.63;;;2.80;99.90;;;;;;4876570;29;20095;-46
2024/01/13 03:11:21;;;;;;;16.33;8.35;;;3.00;99.90;;;;;;4877713;29;20123;-46
2024/01/13 03:13:47;;;;;;;14.68;8.20;;;2.70;99.90;;;;;;4857938;29;20104;-45
2024/01/13 03:16:13;;;;;;;10.65;7.70;;;2.70;99.90;;;;;;4872405;29;20123;-46
2024/01/13 03:18:38;;;;;;;11.18;7.75;;;2.70;99.90;;;;;;4875294;29;20037;-46
2024/01/13 03:21:04;;;;;;;14.82;8.43;;;2.70;99.90;;;;;;4878777;29;20583;-45
2024/01/13 03:23:30;;;;;;;12.77;8.35;;;2.70;99.90;;;;;;4874751;29;20041;-46
2024/01/13 03:25:56;;;;;;;11.63;8.23;;;2.70;99.90;;;;;;4875260;29;20488;-46
2024/01/13 03:28:22;;;;;;;10.88;8.13;;;2.80;99.90;;;;;;4875029;29;20044;-46
2024/01/13 03:30:47;;;;;;;13.77;8.27;;;2.80;99.90;;;;;;4860245;29;20506;-45
2024/01/13 03:33:14;;;;;;;12.10;8.13;;;3.20;99.90;;;;;;4873290;29;20064;-46
2024/01/13 03:35:40;;;;;;;13.38;8.43;;;2.90;99.90;;;;;;4875405;29;20068;-46
2024/01/13 03:38:06;;;;;;;12.82;7.55;;;2.80;99.90;;;;;;4876460;29;20068;-46
2024/01/13 03:40:31;;;;;;;12.13;7.75;;;2.80;99.90;;;;;;4872820;29;20144;-45
2024/01/13 03:42:57;;;;;;;12.27;7.90;;;2.70;99.90;;;;;;4874295;29;20055;-46
2024/01/13 03:45:22;;;;;;;12.93;8.07;;;2.70;99.90;;;;;;4876157;29;20059;-45
2024/01/13 03:47:48;;;;;;;10.70;7.28;;;2.70;99.90;;;;;;4875577;29;20453;-47
2024/01/13 03:50:14;;;;;;;12.77;8.45;;;2.90;99.90;;;;;;4871384;29;20945;-47
2024/01/13 03:52:40;;;;;;;11.15;7.97;;;2.90;99.90;;;;;;4877775;29;20072;-46
2024/01/13 03:55:06;;;;;;;11.57;7.30;;;2.70;99.90;;;;;;4876695;29;20396;-45
2024/01/13 03:57:32;;;;;;;14.18;7.95;;;2.90;99.90;;;;;;4877600;29;20132;-47
2024/01/13 03:59:57;;;;;;;14.23;7.43;;;2.80;99.90;;;;;;4879400;29;20069;-45
2024/01/13 04:02:25;;;;;;;12.18;7.35;;;2.60;99.90;;;;;;4876736;29;20041;-49
2024/01/13 04:04:50;;;;;;;13.75;7.68;;;2.70;99.90;;;;;;4874370;29;20190;-46
2024/01/13 04:07:16;;;;;;;12.90;7.63;;;2.70;99.90;;;;;;4879327;29;20132;-46
2024/01/13 04:09:41;;;;;;;13.52;7.75;;;2.70;99.90;;;;;;4874565;29;20411;-45
2024/01/13 04:12:07;;;;;;;11.88;8.02;;;2.70;99.90;;;;;;4879046;29;20128;-48
2024/01/13 04:14:33;;;;;;;13.77;7.60;;;2.80;99.90;;;;;;4875631;29;20041;-46
2024/01/13 04:16:59;;;;;;;15.75;8.20;;;2.90;99.90;;;;;;4872862;29;20399;-46
2024/01/13 04:19:25;;;;;;;13.90;8.05;;;2.60;99.90;;;;;;4873363;29;20120;-46
2024/01/13 04:21:50;;;;;;;13.55;7.85;;;2.90;99.90;;;;;;4877449;29;20108;-48
2024/01/13 04:24:16;;;;;;;14.07;7.82;;;2.70;99.90;;;;;;4875531;29;20041;-47
2024/01/13 04:26:43;;;;;;;14.68;7.95;;;2.60;99.90;;;;;;4878656;29;20045;-46
2024/01/13 04:29:09;;;;;;;14.00;8.48;;;2.70;99.90;;;;;;4877419;29;20442;-45
2024/01/13 04:31:35;;;;;;;18.98;7.93;;;2.90;99.90;;;;;;4875421;29;20049;-46
2024/01/13 04:34:00;;;;;;;13.25;7.47;;;2.70;99.90;;;;;;4875188;29;20045;-46
2024/01/13 04:36:26;;;;;;;16.58;8.07;;;2.80;99.90;;;;;;4874267;29;20128;-48
2024/01/13 04:38:52;;;;;;;14.57;6.93;;;2.70;99.90;;;;;;4860820;29;20041;-46
2024/01/13 04:41:17;;;;;;;14.95;7.55;;;2.80;99.90;;;;;;4875524;29;20041;-48
2024/01/13 04:43:43;;;;;;;13.00;7.28;;;2.70;99.90;;;;;;4877759;29;20045;-46
2024/01/13 04:46:10;;;;;;;11.45;6.47;;;2.70;99.90;;;;;;4875244;29;20527;-45
2024/01/13 04:48:36;;;;;;;12.02;6.30;;;;;;;;;;4877167;29;20051;-46
2024/01/13 04:51:03;;;;;;;15.35;6.78;;;2.80;99.90;;;;;;4876503;29;20049;-45
2024/01/13 04:53:28;;;;;;;16.45;7.13;;;2.80;99.90;;;;;;4874159;29;20053;-45
2024/01/13 04:55:55;;;;;;;11.75;7.03;;;2.70;99.90;;;;;;4875585;29;20037;-45
2024/01/13 04:58:20;;;;;;;12.73;7.25;;;2.70;99.90;;;;;;4873285;29;20720;-45
2024/01/13 05:00:47;;;;;;;14.15;7.20;;;2.70;99.90;;;;;;4871727;29;20041;-45
2024/01/13 05:03:12;;;;;;;13.02;6.60;;;2.80;99.90;;;;;;4876531;29;20033;-46
2024/01/13 05:05:38;;;;;;;10.52;5.75;;;2.70;99.90;;;;;;4874635;29;20044;-48
2024/01/13 05:08:04;;;;;;;12.95;6.78;;;2.70;99.90;;;;;;4875084;29;20049;-45
2024/01/13 05:10:30;;;;;;;9.73;5.68;;;2.80;99.90;;;;;;4875363;29;20105;-45
2024/01/13 05:12:55;;;;;;;8.77;5.93;;;2.70;99.90;;;;;;4874981;29;20071;-47
2024/01/13 05:15:21;;;;;;;10.85;6.05;;;2.70;99.90;;;;;;4876785;29;20041;-46
2024/01/13 05:17:46;;;;;;;10.50;6.38;;;2.70;99.90;;;;;;4859645;29;20077;-46
2024/01/13 05:20:12;;;;;;;10.45;6.20;;;2.80;99.90;;;;;;4876869;29;20044;-45
2024/01/13 05:22:38;;;;;;;11.30;6.43;;;2.70;99.90;;;;;;4875255;29;20409;-48
2024/01/13 05:25:04;;;;;;;9.07;6.28;;;2.70;99.90;;;;;;4873815;29;20132;-45
2024/01/13 05:27:30;;;;;;;11.80;6.57;;;2.70;99.90;;;;;;4872646;29;20049;-45
2024/01/13 05:29:55;;;;;;;12.25;6.32;;;2.70;99.90;;;;;;4876518;29;20374;-45
2024/01/13 05:32:21;;;;;;;17.83;8.23;;;2.70;99.90;;;;;;4874028;29;20048;-46
2024/01/13 05:34:46;;;;;;;15.13;7.47;;;2.80;99.90;;;;;;4872867;29;20057;-47
2024/01/13 05:37:12;;;;;;;16.77;7.72;;;2.70;99.90;;;;;;4871966;29;20045;-46
2024/01/13 05:39:38;;;;;;;17.38;8.20;;;2.70;99.90;;;;;;4872299;29;20093;-46
2024/01/13 05:42:03;;;;;;;13.43;7.60;;;2.90;99.90;;;;;;4873635;29;20037;-46
2024/01/13 05:44:29;;;;;;;15.90;7.75;;;2.70;99.90;;;;;;4875313;29;20458;-45
2024/01/13 05:46:55;;;;;;;14.52;7.00;;;2.80;99.90;;;;;;4875723;29;20052;-46
2024/01/13 05:49:20;;;;;;;13.40;7.68;;;2.90;99.90;;;;;;4874622;29;20040;-46
2024/01/13 05:51:46;;;;;;;13.18;7.65;;;2.70;99.90;;;;;;4876512;29;20053;-45
2024/01/13 05:54:11;;;;;;;13.57;7.57;;;2.90;99.90;;;;;;4874513;29;20095;-46
2024/01/13 05:56:37;;;;;;;13.20;7.60;;;2.70;99.90;;;;;;4876348;29;20048;-45
2024/01/13 05:59:02;;;;;;;15.48;7.97;;;2.90;99.90;;;;;;4874655;29;20140;-45
2024/01/13 06:01:28;;;;;;;18.10;8.20;;;2.80;99.90;;;;;;4873809;29;20041;-45
2024/01/13 06:03:54;;;;;;;13.43;7.57;;;2.80;99.90;;;;;;4873728;29;20065;-47
2024/01/13 06:06:19;;;;;;;15.70;7.53;;;2.90;99.90;;;;;;4877600;29;20505;-49
2024/01/13 06:08:45;;;;;;;14.52;7.30;;;2.80;99.90;;;;;;4873523;29;20045;-45
2024/01/13 06:11:10;;;;;;;15.07;8.30;;;2.80;99.90;;;;;;4873521;29;20041;-47
2024/01/13 06:13:36;;;;;;;17.15;8.15;;;2.60;99.90;;;;;;4874055;29;20108;-48
2024/01/13 06:16:02;;;;;;;18.10;8.02;;;2.70;99.90;;;;;;4855531;29;20551;-46
2024/01/13 06:18:28;;;;;;;17.35;8.07;;;2.80;99.90;;;;;;4876879;29;20069;-47
2024/01/13 06:20:53;;;;;;;16.60;8.02;;;2.60;99.90;;;;;;4874270;29;20037;-45
2024/01/13 06:23:19;;;;;;;16.05;7.90;;;2.70;99.90;;;;;;4874804;29;20037;-44
2024/01/13 06:25:45;;;;;;;18.13;9.07;;;2.80;99.90;;;;;;4873924;29;20060;-46
2024/01/13 06:28:10;;;;;;;17.65;8.73;;;2.90;99.90;;;;;;4871198;29;20045;-46
2024/01/13 06:30:36;;;;;;;17.98;9.18;;;2.70;99.90;;;;;;4872260;29;20053;-45
2024/01/13 06:33:03;;;;;;;19.38;9.38;;;2.70;99.90;;;;;;4874583;29;20049;-45
2024/01/13 06:35:28;;;;;;;19.10;9.80;;;2.90;99.90;;;;;;4871207;29;20072;-45
2024/01/13 06:37:54;;;;;;;19.02;9.55;;;2.70;99.90;;;;;;4874213;29;20079;-46
2024/01/13 06:40:20;;;;;;;19.88;9.45;;;2.90;99.90;;;;;;4874422;29;20041;-47
2024/01/13 06:42:45;;;;;;;19.10;9.07;;;2.80;99.90;;;;;;4875114;29;20037;-46
2024/01/13 06:45:11;;;;;;;16.80;9.23;;;2.90;99.90;;;;;;4873833;29;20473;-46
2024/01/13 06:47:36;;;;;;;20.27;9.50;;;2.70;99.90;;;;;;4870658;29;20041;-49
2024/01/13 06:50:03;;;;;;;17.33;8.73;;;2.70;99.90;;;;;;4873460;29;20145;-46
2024/01/13 06:52:28;;;;;;;17.33;8.52;;;2.80;99.90;;;;;;4872447;29;20121;-46
2024/01/13 06:54:54;;;;;;;14.30;7.80;;;2.90;99.90;;;;;;4874456;29;20136;-47
2024/01/13 06:57:20;;;;;;;17.13;7.95;;;2.90;99.90;;;;;;4873023;29;20480;-45
2024/01/13 06:59:46;;;;;;;18.42;8.13;;;2.70;99.90;;;;;;4875813;29;20037;-47
2024/01/13 07:02:12;;;;;;;16.35;7.90;;;2.80;99.90;;;;;;4874095;29;20049;-46
2024/01/13 07:04:38;;;;;;;14.25;7.30;;;2.80;99.90;;;;;;4872905;29;20120;-45
2024/01/13 07:07:05;;;;;;;12.95;7.07;;;2.90;99.90;;;;;;4867910;29;20080;-45
2024/01/13 07:09:31;;;;;;;16.20;6.95;;;2.90;99.90;;;;;;4871112;29;20048;-46
2024/01/13 07:11:56;;;;;;;15.38;7.93;;;2.80;99.90;;;;;;4874521;29;21473;-46
2024/01/13 07:14:22;;;;;;;14.30;7.88;;;2.90;99.90;;;;;;4878239;29;20063;-46
2024/01/13 07:16:47;;;;;;;15.45;7.95;;;3.00;99.90;;;;;;4870492;29;20041;-49
2024/01/13 07:19:14;;;;;;;15.63;8.18;;;2.80;99.90;;;;;;4874996;29;20051;-48
2024/01/13 07:21:41;;;;;;;14.87;7.60;;;2.80;99.90;;;;;;4874563;29;20469;-47
2024/01/13 07:24:08;;;;;;;18.65;8.13;;;2.90;99.90;;;;;;4874330;29;20045;-45
2024/01/13 07:26:38;;;;;;;18.35;8.10;;;2.90;99.90;;;;;;4872972;29;20041;-47
2024/01/13 07:29:03;;;;;;;17.38;7.88;;;3.00;99.90;;;;;;4876769;29;20156;-46
2024/01/13 07:31:29;;;;;;;15.65;7.85;;;2.80;99.90;;;;;;4875660;29;20139;-46
2024/01/13 07:33:55;;;;;;;14.68;7.90;;;2.90;99.90;;;;;;4873791;29;20056;-49
2024/01/13 07:36:21;;;;;;;14.15;8.18;;;2.90;99.90;;;;;;4874022;29;20089;-46
2024/01/13 07:38:47;;;;;;;15.13;8.38;;;3.00;99.90;;;;;;4877084;29;20056;-47
2024/01/13 07:41:12;;;;;;;15.15;7.90;;;3.10;99.90;;;;;;4877128;29;20391;-46
2024/01/13 07:43:38;;;;;;;15.10;7.93;;;2.90;99.90;;;;;;4876258;29;20183;-46
2024/01/13 07:46:04;;;;;;;15.05;8.35;;;3.10;99.90;;;;;;4879035;29;20080;-46
2024/01/13 07:48:29;;;;;;;14.60;8.45;;;3.10;99.90;;;;;;4871469;29;20069;-46
2024/01/13 07:50:55;;;;;;;14.93;8.23;;;3.00;99.90;;;;;;4872184;29;20392;-47
2024/01/13 07:53:20;;;;;;;16.83;8.75;;;3.10;99.90;;;;;;4873400;29;20041;-45
2024/01/13 07:55:46;;;;;;;15.07;8.63;;;3.10;99.90;;;;;;4876679;29;20097;-45
2024/01/13 07:58:11;;;;;;;17.63;9.05;;;3.20;99.90;;;;;;4880025;29;20051;-46
2024/01/13 08:00:37;;;;;;;19.02;9.80;;;3.10;99.90;;;;;;4874509;29;20048;-47
2024/01/13 08:03:04;;;;;;;18.63;10.57;;;3.00;99.90;;;;;;4875512;29;20048;-47
2024/01/13 08:05:31;;;;;;;18.67;10.10;;;3.20;99.90;;;;;;4877980;29;20127;-46
2024/01/13 08:07:56;;;;;;;18.38;10.90;;;3.10;99.90;;;;;;4876634;29;20076;-49
2024/01/13 08:10:23;;;;;;;19.27;10.90;;;3.40;99.90;;;;;;4875875;29;20068;-48
2024/01/13 08:12:48;;;;;;;20.08;10.95;;;3.10;99.90;;;;;;4879628;29;20123;-45
2024/01/13 08:15:14;;;;;;;18.40;10.55;;;3.10;99.90;;;;;;4877950;29;20477;-45
2024/01/13 08:17:40;;;;;;;18.10;10.68;;;3.10;99.90;;;;;;4876696;29;20049;-45
2024/01/13 08:20:07;;;;;;;21.20;11.07;;;3.10;99.90;;;;;;4874335;29;20047;-47
2024/01/13 08:22:33;;;;;;;23.77;11.32;;;3.30;99.90;;;;;;4875276;29;20085;-46
2024/01/13 08:24:58;;;;;;;17.35;10.73;;;3.20;99.90;;;;;;4876587;29;20064;-45
2024/01/13 08:27:25;;;;;;;19.00;10.48;;;3.20;99.90;;;;;;4872615;29;20105;-46
2024/01/13 08:29:50;;;;;;;17.75;10.55;;;3.40;99.90;;;;;;4872826;29;20131;-48
2024/01/13 08:32:16;;;;;;;16.65;10.07;;;3.30;99.90;;;;;;4873923;29;20131;-46
2024/01/13 08:34:41;;;;;;;17.58;10.13;;;3.20;99.90;;;;;;4871957;29;20044;-45
2024/01/13 08:37:07;;;;;;;14.73;9.63;;;3.20;99.90;;;;;;4873487;29;20108;-47
2024/01/13 08:39:33;;;;;;;15.55;9.75;;;3.20;99.90;;;;;;4873275;29;20041;-47
2024/01/13 08:41:59;;;;;;;11.60;8.75;;;3.20;99.90;;;;;;4876908;29;20053;-46
2024/01/13 08:44:25;;;;;;;14.40;7.75;;;3.30;99.90;;;;;;4866396;29;20523;-46
2024/01/13 08:46:50;;;;;;;13.32;8.45;;;3.30;99.90;;;;;;4871524;29;20527;-46
2024/01/13 08:49:16;;;;;;;14.70;8.25;;;3.30;99.90;;;;;;4870148;29;20526;-45
2024/01/13 08:51:42;;;;;;;12.25;8.40;;;3.40;99.90;;;;;;4873389;29;20053;-45
2024/01/13 08:54:08;;;;;;;13.20;8.15;;;3.30;99.90;;;;;;4873559;29;20056;-47
2024/01/13 08:56:36;;;;;;;15.18;8.52;;;3.30;99.90;;;;;;4871616;29;20128;-48
2024/01/13 08:59:02;;;;;;;15.35;9.20;;;3.40;99.90;;;;;;4852556;29;20052;-45
2024/01/13 09:01:28;;;;;;;18.45;9.88;;;3.50;99.90;;;;;;4871326;29;20033;-45
2024/01/13 09:03:53;;;;;;;18.10;9.60;;;3.10;99.90;;;;;;4853199;29;20179;-46
2024/01/13 09:06:19;;;;;;;17.73;10.50;;;;;;;;;;4872284;29;20586;-47
2024/01/13 09:08:45;;;;;;;25.80;12.60;;;3.70;99.90;;;;;;4875087;29;20037;-45
2024/01/13 09:11:12;;;;;;;26.05;13.90;;;;;;;;;;4866109;29;20148;-47
2024/01/13 09:13:37;;;;;;;28.88;14.35;;;3.60;99.90;;;;;;4877500;29;20068;-49
2024/01/13 09:16:03;;;;;;;29.50;13.93;;;3.60;99.90;;;;;;4874604;29;20484;-46
2024/01/13 09:18:29;;;;;;;30.67;15.10;;;3.80;99.90;;;;;;4875029;29;20048;-45
2024/01/13 09:20:54;;;;;;;32.17;16.13;;;3.70;99.90;;;;;;4874738;29;20079;-45
2024/01/13 09:23:20;;;;;;;31.52;15.82;;;3.30;99.90;;;;;;4874955;29;20060;-45
2024/01/13 09:25:46;;;;;;;33.45;16.38;;;3.50;99.90;;;;;;4873159;29;20048;-46
2024/01/13 09:28:11;;;;;;;34.83;17.17;;;3.40;99.90;;;;;;4872131;29;20370;-46
2024/01/13 09:30:37;;;;;;;38.60;18.52;;;3.30;99.90;;;;;;4873507;29;20128;-45
2024/01/13 09:33:04;;;;;;;35.15;18.02;;;3.60;99.90;;;;;;4875080;29;20045;-45
2024/01/13 09:35:31;;;;;;;34.83;18.38;;;3.20;99.90;;;;;;4877338;29;20112;-46
2024/01/13 09:37:59;;;;;;;37.72;20.27;;;3.20;99.90;;;;;;4875687;29;20052;-46
2024/01/13 09:40:28;;;;;;;41.63;20.88;;;3.80;99.90;;;;;;4873273;29;20574;-46
2024/01/13 09:43:11;;;;;;;43.20;21.67;;;3.50;99.90;;;;;;4877154;29;20076;-49
2024/01/13 09:45:40;;;;;;;45.97;22.30;;;3.60;99.90;;;;;;4873221;29;20048;-48
2024/01/13 09:48:08;;;;;;;44.95;22.33;;;3.60;99.90;;;;;;4874758;29;20072;-46
2024/01/13 09:50:35;;;;;;;51.40;23.53;;;3.70;99.90;;;;;;4873469;29;20052;-48
2024/01/13 09:53:05;;;;;;;48.97;23.02;;;3.40;99.90;;;;;;4876730;29;20045;-46
2024/01/13 09:55:33;;;;;;;43.20;23.63;;;3.50;99.90;;;;;;4875304;29;20474;-46
2024/01/13 09:57:59;;;;;;;48.95;23.63;;;3.30;99.90;;;;;;4875084;29;20097;-45
2024/01/13 10:00:30;;;;;;;42.03;21.90;;;3.40;99.90;;;;;;4875797;29;20059;-45
2024/01/13 10:02:57;;;;;;;48.38;24.48;;;3.50;99.90;;;;;;4873547;29;20049;-45
2024/01/13 10:05:22;;;;;;;43.00;23.02;;;3.50;99.90;;;;;;4872781;29;20052;-47
2024/01/13 10:07:52;;;;;;;44.83;24.23;;;3.50;99.90;;;;;;4875298;29;20540;-46
2024/01/13 10:10:19;;;;;;;47.40;24.30;;;3.40;99.90;;;;;;4877440;29;20041;-47
2024/01/13 10:12:45;;;;;;;47.88;25.40;;;3.50;99.90;;;;;;4875546;29;20135;-46
2024/01/13 10:15:15;;;;;;;50.85;26.15;;;3.40;99.90;;;;;;4873964;29;20136;-46
2024/01/13 10:17:41;;;;;;;47.40;25.45;;;3.60;99.90;;;;;;4878451;29;20037;-47
2024/01/13 10:20:16;;;;;;;49.47;26.23;;;3.60;99.90;;;;;;4877624;29;20112;-47
2024/01/13 10:22:42;;;;;;;45.13;25.65;;;3.50;99.90;;;;;;4871716;29;20394;-46
2024/01/13 10:25:08;;;;;;;47.42;27.23;;;3.60;99.90;;;;;;4875059;29;20500;-49
2024/01/13 10:27:38;;;;;;;52.30;27.75;;;3.60;99.90;;;;;;4866101;29;20132;-46
2024/01/13 10:30:07;;;;;;;47.60;28.15;;;3.70;99.90;;;;;;4872073;29;20044;-47
2024/01/13 10:32:33;;;;;;;44.97;27.02;;;3.70;99.90;;;;;;4877648;29;20057;-47
2024/01/13 10:34:59;;;;;;;48.58;27.30;;;3.70;99.90;;;;;;4873678;29;20081;-46
2024/01/13 10:37:26;;;;;;;46.63;27.88;;;3.60;99.90;;;;;;4872140;29;20083;-46
2024/01/13 10:39:51;;;;;;;46.60;26.63;;;3.70;99.90;;;;;;4872755;29;20041;-50
2024/01/13 10:42:20;;;;;;;47.60;27.80;;;3.70;99.90;;;;;;4872483;29;20686;-46
2024/01/13 10:44:56;;;;;;;52.42;28.33;;;3.70;99.90;;;;;;4874238;29;20123;-46
2024/01/13 10:47:32;;;;;;;50.70;28.20;;;3.70;99.90;;;;;;4873716;29;20037;-46
2024/01/13 10:49:58;;;;;;;51.03;29.73;;;3.70;99.90;;;;;;4874609;29;20061;-46
2024/01/13 10:52:37;;;;;;;48.47;30.05;;;3.70;99.90;;;;;;4875263;29;20052;-45
2024/01/13 10:55:04;;;;;;;47.25;30.67;;;3.90;99.90;;;;;;4880359;29;20045;-46
2024/01/13 10:57:33;;;;;;;51.05;29.58;;;3.90;99.90;;;;;;4873285;29;20049;-46
2024/01/13 11:00:00;;;;;;;43.40;30.02;;;3.90;99.90;;;;;;4876211;29;20065;-46
2024/01/13 11:02:29;;;;;;;47.77;31.17;;;3.90;99.90;;;;;;4876980;29;20241;-46
2024/01/13 11:04:57;;;;;;;52.45;32.13;;;;;;;;;;4876634;29;20033;-45
2024/01/13 11:07:23;;;;;;;50.60;32.45;;;;;;;;;;4880892;29;20515;-47
2024/01/13 11:09:52;;;;;;;52.50;33.75;;;4.30;99.90;;;;;;4873148;29;20053;-46
2024/01/13 11:12:25;;;;;;;50.90;32.78;;;3.80;99.90;;;;;;4883926;29;20044;-45
2024/01/13 11:15:19;;;;;;;52.10;33.40;;;4.00;99.90;;;;;;4878631;29;20040;-46
2024/01/13 11:17:46;;;;;;;57.80;34.50;;;4.00;99.90;;;;;;4877661;29;20049;-47
2024/01/13 11:20:12;;;;;;;56.03;35.15;;;4.00;99.90;;;;;;4877888;29;20071;-46
2024/01/13 11:22:42;;;;;;;58.45;36.20;;;4.00;99.90;;;;;;4885393;29;20105;-49
2024/01/13 11:25:24;;;;;;;57.55;37.28;;;4.00;99.90;;;;;;4883566;29;20048;-48
2024/01/13 11:27:57;;;;;;;59.85;38.33;;;4.00;99.90;;;;;;4878325;29;20041;-45
2024/01/13 11:30:37;;;;;;;60.15;38.13;;;4.10;99.90;;;;;;4878264;29;20045;-47
2024/01/13 11:33:10;;;;;;;63.17;40.40;;;4.10;99.90;;;;;;4879006;29;20523;-48
2024/01/13 11:35:37;;;;;;;62.10;39.25;;;4.10;99.90;;;;;;4880051;29;20085;-47
2024/01/13 11:38:06;;;;;;;59.20;39.08;;;4.10;99.90;;;;;;4876727;29;20382;-49
2024/01/13 11:40:33;;;;;;;60.80;40.13;;;4.10;99.90;;;;;;4876752;29;20045;-46
2024/01/13 11:43:00;;;;;;;59.78;40.53;;;4.20;99.90;;;;;;4877401;29;20040;-46
2024/01/13 11:45:40;;;;;;;60.00;39.50;;;4.30;99.90;;;;;;4860964;29;20487;-51
2024/01/13 11:48:30;;;;;;;62.20;39.95;;;4.10;99.90;;;;;;4877004;29;20041;-47
2024/01/13 11:50:56;;;;;;;61.40;40.95;;;4.20;99.90;;;;;;4874309;29;20129;-47
2024/01/13 11:53:43;;;;;;;63.17;41.00;;;4.20;99.90;;;;;;4875727;29;20097;-47
2024/01/13 11:56:16;;;;;;;58.65;38.80;;;4.20;99.90;;;;;;4878473;29;20048;-46
2024/01/13 11:58:42;;;;;;;57.47;40.55;;;4.20;99.90;;;;;;4880634;29;20048;-47
2024/01/13 12:01:09;;;;;;;59.30;39.15;;;4.30;99.90;;;;;;4878684;29;20043;-46
2024/01/13 12:03:37;;;;;;;64.45;39.85;;;4.20;99.90;;;;;;4878481;29;20494;-47
2024/01/13 12:06:03;;;;;;;54.83;38.40;;;4.30;99.90;;;;;;4876032;29;20081;-46
2024/01/13 12:08:29;;;;;;;60.90;39.17;;;4.30;99.90;;;;;;4879268;29;20053;-50
2024/01/13 12:10:55;;;;;;;59.33;38.10;;;;;;;;;;4864074;29;20051;-47
2024/01/13 12:13:21;;;;;;;57.90;38.90;;;4.40;99.90;;;;;;4880679;29;20053;-46
2024/01/13 12:15:48;;;;;;;60.17;38.80;;;4.60;99.90;;;;;;4880132;29;20417;-47
2024/01/13 12:18:25;;;;;;;56.67;37.65;;;4.40;99.90;;;;;;4879787;29;20084;-46
2024/01/13 12:21:00;;;;;;;59.10;37.83;;;4.30;99.90;;;;;;4878305;29;20053;-50
2024/01/13 12:23:28;;;;;;;62.35;36.42;;;4.40;99.90;;;;;;4879978;29;20071;-47
2024/01/13 12:25:54;;;;;;;;;;;4.30;99.90;;;;;;4880438;29;20112;-47
2024/01/13 12:28:20;;;;;;;57.85;36.58;;;4.30;99.90;;;;;;4881341;29;19974;-46
2024/01/13 12:30:49;;;;;;;60.13;37.33;;;4.30;99.90;;;;;;4879384;29;20049;-46
2024/01/13 12:33:15;;;;;;;63.03;38.45;;;;;;;;;;4879816;29;20041;-45
2024/01/13 12:35:40;;;;;;;63.97;38.40;;;4.50;99.90;;;;;;4879584;29;20049;-46
2024/01/13 12:38:06;;;;;;;56.90;36.45;;;4.50;99.90;;;;;;4879434;29;20481;-46
2024/01/13 12:40:33;;;;;;;57.72;37.33;;;4.50;99.90;;;;;;4876760;29;20041;-46
2024/01/13 12:42:59;;;;;;;57.58;37.55;;;4.50;99.90;;;;;;4866611;29;20404;-46
2024/01/13 12:45:29;;;;;;;56.92;37.13;;;4.60;99.90;;;;;;4877252;29;20060;-46